Time;durP1;ratioP1;P1;durP2;ratioP2;P2;SDS_P1;SDS_P2;PMS_P1;PMS_P2;Temp;Humidity;BMP_temperature;BMP_pressure;BME280_temperature;BME280_humidity;BME280_pressure;Samples;Min_cycle;Max_cycle;Signal;HPM_P1;HPM_P2
2023/04/30 00:00:28;;;;;;;1999.90;999.90;;;17.70;99.90;;;;;;6270904;22;20063;-66
2023/04/30 00:02:54;;;;;;;1999.90;999.90;;;17.70;99.90;;;;;;6269994;22;20016;-67
2023/04/30 00:05:20;;;;;;;1999.90;999.90;;;17.60;99.90;;;;;;6269286;22;20050;-67
2023/04/30 00:07:45;;;;;;;1999.90;999.90;;;17.60;99.90;;;;;;6270657;22;20452;-66
2023/04/30 00:10:11;;;;;;;1999.90;999.90;;;17.60;99.90;;;;;;6269614;22;20007;-67
2023/04/30 00:12:37;;;;;;;1999.90;999.90;;;17.60;99.90;;;;;;6270695;22;20012;-67
2023/04/30 00:15:03;;;;;;;1999.90;999.90;;;17.60;99.90;;;;;;6242168;22;20035;-67
2023/04/30 00:17:29;;;;;;;1999.90;999.90;;;17.60;99.90;;;;;;6270792;22;20008;-67
2023/04/30 00:19:55;;;;;;;1999.90;999.90;;;17.60;99.90;;;;;;6269047;22;20097;-67
2023/04/30 00:22:20;;;;;;;1999.90;999.90;;;17.60;99.90;;;;;;6269912;22;20016;-66
2023/04/30 00:24:46;;;;;;;1999.90;999.90;;;17.60;99.90;;;;;;6262431;22;20015;-67
2023/04/30 00:27:12;;;;;;;1999.90;999.90;;;17.60;99.90;;;;;;6299563;22;20844;-66
2023/04/30 00:29:38;;;;;;;1999.90;999.90;;;17.50;99.90;;;;;;6301480;22;20011;-67
2023/04/30 00:32:03;;;;;;;1999.90;999.90;;;17.50;99.90;;;;;;6300517;22;20502;-66
2023/04/30 00:34:29;;;;;;;1999.90;999.90;;;17.50;99.90;;;;;;6301378;22;20780;-66
2023/04/30 00:36:55;;;;;;;1999.90;999.90;;;17.50;99.90;;;;;;6300366;22;20332;-67
2023/04/30 00:39:20;;;;;;;1999.90;999.90;;;17.50;99.90;;;;;;6272790;22;20340;-66
2023/04/30 00:41:46;;;;;;;1999.90;999.90;;;17.50;99.90;;;;;;6301478;22;20019;-68
2023/04/30 00:44:11;;;;;;;1999.90;999.90;;;17.50;99.90;;;;;;6300234;22;20015;-66
2023/04/30 00:46:37;;;;;;;1999.90;999.90;;;17.50;99.90;;;;;;6301452;22;20439;-67
2023/04/30 00:49:03;;;;;;;1999.90;999.90;;;17.50;99.90;;;;;;6299504;22;20017;-67
2023/04/30 00:51:32;;;;;;;1999.90;999.90;;;17.50;99.90;;;;;;6300975;22;20008;-67
2023/04/30 00:54:00;;;;;;;1999.90;999.90;;;17.50;99.90;;;;;;6300462;22;20314;-67
2023/04/30 00:56:26;;;;;;;1999.90;999.90;;;17.50;99.90;;;;;;6301178;22;20018;-66
2023/04/30 00:58:56;;;;;;;1999.90;999.90;;;17.50;99.90;;;;;;6301173;22;20011;-66
2023/04/30 01:01:27;;;;;;;1999.90;999.90;;;17.50;99.90;;;;;;6300586;22;20037;-66
2023/04/30 01:03:53;;;;;;;1999.90;999.90;;;17.50;99.90;;;;;;6300364;22;20319;-66
2023/04/30 01:06:19;;;;;;;1999.90;999.90;;;17.40;99.90;;;;;;6300208;22;20101;-66
2023/04/30 01:08:45;;;;;;;1999.90;999.90;;;17.40;99.90;;;;;;6300707;22;20011;-66
2023/04/30 01:11:25;;;;;;;1999.90;999.90;;;17.40;99.90;;;;;;6299890;22;20015;-67
2023/04/30 01:14:11;;;;;;;1999.90;999.90;;;17.40;99.90;;;;;;6300771;22;20011;-66
2023/04/30 01:16:46;;;;;;;1999.90;999.90;;;17.40;99.90;;;;;;6301183;22;20007;-67
2023/04/30 01:19:43;;;;;;;1999.90;999.90;;;17.40;99.90;;;;;;6299752;22;20061;-67
2023/04/30 01:22:20;;;;;;;1999.90;999.90;;;17.40;99.90;;;;;;6272381;22;20026;-67
2023/04/30 01:25:19;;;;;;;1999.90;999.90;;;17.40;99.90;;;;;;6281382;22;20354;-66
2023/04/30 01:28:07;;;;;;;1999.90;999.90;;;17.30;99.90;;;;;;6269748;22;20016;-66
2023/04/30 01:30:33;;;;;;;1999.90;999.90;;;17.30;99.90;;;;;;6269568;22;20065;-67
2023/04/30 01:32:59;;;;;;;1999.90;999.90;;;17.30;99.90;;;;;;6267786;22;20079;-67
2023/04/30 01:36:02;;;;;;;1999.90;999.90;;;17.30;99.90;;;;;;6270038;22;20012;-67
2023/04/30 01:38:36;;;;;;;1999.90;999.90;;;17.30;99.90;;;;;;6270306;22;20314;-67
2023/04/30 01:41:09;;;;;;;1999.90;999.90;;;17.30;99.90;;;;;;6268285;22;20027;-66
2023/04/30 01:44:07;;;;;;;1999.90;999.90;;;17.30;99.90;;;;;;6270281;22;20019;-66
2023/04/30 01:46:33;;;;;;;1999.90;999.90;;;17.30;99.90;;;;;;6269094;22;20082;-66
2023/04/30 01:49:22;;;;;;;1999.90;999.90;;;17.30;99.90;;;;;;6268555;22;20376;-66
2023/04/30 01:51:55;;;;;;;1999.90;999.90;;;17.30;99.90;;;;;;6269783;22;20086;-66
2023/04/30 01:54:28;;;;;;;1999.90;999.90;;;17.30;99.90;;;;;;6242156;22;20338;-66
2023/04/30 01:57:15;;;;;;;1999.90;999.90;;;17.30;99.90;;;;;;6269542;22;20011;-67
2023/04/30 01:59:42;;;;;;;1999.90;999.90;;;17.30;99.90;;;;;;6270131;22;20019;-67
2023/04/30 02:02:08;;;;;;;1999.90;999.90;;;17.20;99.90;;;;;;6215606;22;20019;-67
2023/04/30 02:04:33;;;;;;;1999.90;999.90;;;17.20;99.90;;;;;;6269508;22;20333;-66
2023/04/30 02:06:59;;;;;;;1999.90;999.90;;;17.20;99.90;;;;;;6268214;22;20011;-67
2023/04/30 02:09:25;;;;;;;1999.90;999.90;;;17.20;99.90;;;;;;6270048;22;20083;-67
2023/04/30 02:11:51;;;;;;;1999.90;999.90;;;17.20;99.90;;;;;;6242664;22;20441;-67
2023/04/30 02:14:16;;;;;;;1999.90;999.90;;;17.20;99.90;;;;;;6268903;22;20011;-67
2023/04/30 02:16:42;;;;;;;1999.90;999.90;;;17.20;99.90;;;;;;6241258;22;20016;-67
2023/04/30 02:19:07;;;;;;;1999.90;999.90;;;17.10;99.90;;;;;;6268373;22;20012;-66
2023/04/30 02:21:33;;;;;;;1999.90;999.90;;;17.20;99.90;;;;;;6242482;22;20026;-67
2023/04/30 02:23:59;;;;;;;1999.90;999.90;;;17.20;99.90;;;;;;6250586;22;20019;-66
2023/04/30 02:26:25;;;;;;;1999.90;999.90;;;17.10;99.90;;;;;;6302122;22;20011;-67
2023/04/30 02:28:51;;;;;;;1999.90;999.90;;;17.10;99.90;;;;;;6302184;22;20053;-66
2023/04/30 02:31:17;;;;;;;1999.90;999.90;;;17.10;99.90;;;;;;6301038;22;20011;-67
2023/04/30 02:33:42;;;;;;;1999.90;999.90;;;17.20;99.90;;;;;;6302544;22;20023;-67
2023/04/30 02:36:08;;;;;;;1999.90;999.90;;;17.10;99.90;;;;;;6301425;22;20053;-67
2023/04/30 02:38:33;;;;;;;1999.90;999.90;;;17.10;99.90;;;;;;6302836;22;20007;-67
2023/04/30 02:40:59;;;;;;;1999.90;999.90;;;17.10;99.90;;;;;;6301296;22;20011;-67
2023/04/30 02:43:24;;;;;;;1999.90;999.90;;;17.10;99.90;;;;;;6275022;22;20117;-67
2023/04/30 02:45:50;;;;;;;1999.90;999.90;;;17.10;99.90;;;;;;6274340;22;20506;-67
2023/04/30 02:48:16;;;;;;;1999.90;999.90;;;17.10;99.90;;;;;;6273982;22;20320;-66
2023/04/30 02:50:42;;;;;;;1999.90;999.90;;;17.10;99.90;;;;;;6301715;22;20015;-66
2023/04/30 02:53:07;;;;;;;1999.90;999.90;;;17.10;99.90;;;;;;6301191;22;20007;-67
2023/04/30 02:55:33;;;;;;;1999.90;999.90;;;17.10;99.90;;;;;;6302629;22;20015;-67
2023/04/30 02:57:58;;;;;;;1999.90;999.90;;;17.10;99.90;;;;;;6301423;22;20082;-67
2023/04/30 03:00:24;;;;;;;1999.90;999.90;;;17.10;99.90;;;;;;6301915;22;20068;-67
2023/04/30 03:02:50;;;;;;;1999.90;999.90;;;17.00;99.90;;;;;;6274624;22;20451;-66
2023/04/30 03:05:15;;;;;;;1999.90;999.90;;;17.00;99.90;;;;;;6301065;22;20012;-67
2023/04/30 03:07:41;;;;;;;1999.90;999.90;;;17.00;99.90;;;;;;6302557;22;20057;-66
2023/04/30 03:10:07;;;;;;;1999.90;999.90;;;17.00;99.90;;;;;;6301424;22;20037;-67
2023/04/30 03:12:33;;;;;;;1999.90;999.90;;;17.00;99.90;;;;;;6302555;22;20332;-66
2023/04/30 03:14:58;;;;;;;1999.90;999.90;;;17.00;99.90;;;;;;6300201;22;20012;-66
2023/04/30 03:17:24;;;;;;;1999.90;999.90;;;17.00;99.90;;;;;;6302102;22;20365;-66
2023/04/30 03:19:50;;;;;;;1999.90;999.90;;;17.00;99.90;;;;;;6302297;22;20022;-66
2023/04/30 03:22:18;;;;;;;1999.90;999.90;;;17.00;99.90;;;;;;6300999;22;20014;-67
2023/04/30 03:24:44;;;;;;;1999.90;999.90;;;17.00;99.90;;;;;;6282354;22;20016;-66
2023/04/30 03:27:09;;;;;;;1999.90;999.90;;;17.00;99.90;;;;;;6269909;22;20444;-67
2023/04/30 03:29:35;;;;;;;1999.90;999.90;;;16.90;99.90;;;;;;6270806;22;20021;-66
2023/04/30 03:32:01;;;;;;;1999.90;999.90;;;17.00;99.90;;;;;;6270008;22;20015;-67
2023/04/30 03:34:26;;;;;;;1999.90;999.90;;;16.90;99.90;;;;;;6270866;22;20381;-67
2023/04/30 03:36:52;;;;;;;1999.90;999.90;;;16.90;99.90;;;;;;6270634;22;20046;-67
2023/04/30 03:39:17;;;;;;;1999.90;999.90;;;16.90;99.90;;;;;;6270436;22;20073;-67
2023/04/30 03:41:43;;;;;;;1999.90;999.90;;;16.90;99.90;;;;;;6271410;22;20020;-67
2023/04/30 03:44:14;;;;;;;1999.90;999.90;;;16.90;99.90;;;;;;6269824;22;20008;-67
2023/04/30 03:46:41;;;;;;;1999.90;999.90;;;16.90;99.90;;;;;;6270150;22;20015;-67
2023/04/30 03:49:07;;;;;;;1999.90;999.90;;;16.90;99.90;;;;;;6269909;22;20313;-66
2023/04/30 03:51:32;;;;;;;1999.90;999.90;;;16.90;99.90;;;;;;6271023;22;20044;-66
2023/04/30 03:53:58;;;;;;;1999.90;999.90;;;16.80;99.90;;;;;;6242571;22;20397;-66
2023/04/30 03:56:24;;;;;;;1999.90;999.90;;;16.80;99.90;;;;;;6270499;22;20007;-67
2023/04/30 03:58:50;;;;;;;1999.90;999.90;;;16.90;99.90;;;;;;6270525;22;20012;-66
2023/04/30 04:01:16;;;;;;;1999.90;999.90;;;16.80;99.90;;;;;;6269451;22;20060;-67
2023/04/30 04:03:41;;;;;;;1999.90;999.90;;;16.80;99.90;;;;;;6243996;22;20023;-67
2023/04/30 04:06:07;;;;;;;1999.90;999.90;;;16.80;99.90;;;;;;6269964;22;20022;-66
2023/04/30 04:08:32;;;;;;;1999.90;999.90;;;16.80;99.90;;;;;;6270661;22;20090;-67
2023/04/30 04:10:58;;;;;;;1999.90;999.90;;;16.80;99.90;;;;;;6269170;22;20085;-67
2023/04/30 04:13:24;;;;;;;1999.90;999.90;;;16.80;99.90;;;;;;6271530;22;20075;-66
2023/04/30 04:15:50;;;;;;;1999.90;999.90;;;16.80;99.90;;;;;;6270710;22;20023;-66
2023/04/30 04:18:15;;;;;;;1999.90;999.90;;;16.80;99.90;;;;;;6269832;22;20022;-66
2023/04/30 04:20:41;;;;;;;1999.90;999.90;;;16.80;99.90;;;;;;6269527;22;20018;-66
2023/04/30 04:23:06;;;;;;;1999.90;999.90;;;16.80;99.90;;;;;;6269894;22;20014;-67
2023/04/30 04:25:32;;;;;;;1999.90;999.90;;;16.80;99.90;;;;;;6269750;22;20031;-67
2023/04/30 04:27:57;;;;;;;1999.90;999.90;;;16.80;99.90;;;;;;6269833;22;20007;-67
2023/04/30 04:30:23;;;;;;;1999.90;999.90;;;16.70;99.90;;;;;;6269996;22;20011;-67
2023/04/30 04:32:52;;;;;;;1999.90;999.90;;;16.80;99.90;;;;;;6270117;22;20007;-67
2023/04/30 04:35:18;;;;;;;1999.90;999.90;;;16.70;99.90;;;;;;6269350;22;20015;-67
2023/04/30 04:37:44;;;;;;;1999.90;999.90;;;16.70;99.90;;;;;;6270678;22;20023;-67
2023/04/30 04:40:11;;;;;;;1999.90;999.90;;;16.70;99.90;;;;;;6268950;22;20775;-66
2023/04/30 04:42:39;;;;;;;1999.90;999.90;;;16.70;99.90;;;;;;6269971;22;20015;-66
2023/04/30 04:45:06;;;;;;;1999.90;999.90;;;16.70;99.90;;;;;;6269657;22;20011;-67
2023/04/30 04:47:32;;;;;;;1999.90;999.90;;;16.70;99.90;;;;;;6270674;22;20141;-67
2023/04/30 04:49:58;;;;;;;1999.90;999.90;;;16.70;99.90;;;;;;6241355;22;20039;-66
2023/04/30 04:52:23;;;;;;;1999.90;999.90;;;16.70;99.90;;;;;;6269948;22;20043;-66
2023/04/30 04:54:49;;;;;;;1999.90;999.90;;;16.70;99.90;;;;;;6269468;22;20019;-66
2023/04/30 04:57:15;;;;;;;1999.90;999.90;;;16.70;99.90;;;;;;6269068;22;20085;-67
2023/04/30 04:59:40;;;;;;;1999.90;999.90;;;16.70;99.90;;;;;;6270636;22;20321;-66
2023/04/30 05:02:06;;;;;;;1999.90;999.90;;;16.70;99.90;;;;;;6269415;22;20050;-67
2023/04/30 05:04:32;;;;;;;1999.90;999.90;;;16.70;99.90;;;;;;6269571;22;20441;-67
2023/04/30 05:06:57;;;;;;;1999.90;999.90;;;16.70;99.90;;;;;;6268945;22;20030;-67
2023/04/30 05:09:23;;;;;;;1999.90;999.90;;;16.70;99.90;;;;;;6269640;22;20062;-66
2023/04/30 05:11:48;;;;;;;1999.90;999.90;;;16.70;99.90;;;;;;6270447;22;20062;-66
2023/04/30 05:14:14;;;;;;;1999.90;999.90;;;16.70;99.90;;;;;;6268716;22;20012;-66
2023/04/30 05:16:40;;;;;;;1999.90;999.90;;;16.70;99.90;;;;;;6269918;22;20082;-66
2023/04/30 05:19:08;;;;;;;1999.90;999.90;;;16.70;99.90;;;;;;6268993;22;20015;-66
2023/04/30 05:21:34;;;;;;;1999.90;999.90;;;16.70;99.90;;;;;;6242655;22;20090;-67
2023/04/30 05:24:00;;;;;;;1999.90;999.90;;;16.70;99.90;;;;;;6267713;22;20448;-66
2023/04/30 05:26:25;;;;;;;1999.90;999.90;;;16.70;99.90;;;;;;6242352;22;20077;-66
2023/04/30 05:28:51;;;;;;;1999.90;999.90;;;16.70;99.90;;;;;;6270342;22;20022;-67
2023/04/30 05:31:17;;;;;;;1999.90;999.90;;;16.70;99.90;;;;;;6268953;22;20011;-67
2023/04/30 05:33:42;;;;;;;1999.90;999.90;;;16.70;99.90;;;;;;6270318;22;20029;-66
2023/04/30 05:36:09;;;;;;;1999.90;999.90;;;16.70;99.90;;;;;;6268457;22;20388;-66
2023/04/30 05:38:35;;;;;;;1999.90;999.90;;;16.70;99.90;;;;;;6268553;22;20016;-66
2023/04/30 05:41:01;;;;;;;1999.90;999.90;;;16.70;99.90;;;;;;6268526;22;20019;-66
2023/04/30 05:43:26;;;;;;;1999.90;999.90;;;16.70;99.90;;;;;;6269978;22;20423;-66
2023/04/30 05:45:52;;;;;;;1999.90;999.90;;;16.70;99.90;;;;;;6269771;22;20012;-66
2023/04/30 05:48:17;;;;;;;1999.90;999.90;;;16.70;99.90;;;;;;6268489;22;20101;-67
2023/04/30 05:50:43;;;;;;;1999.90;999.90;;;16.70;99.90;;;;;;6242342;22;20018;-67
2023/04/30 05:53:09;;;;;;;1999.90;999.90;;;16.70;99.90;;;;;;6268483;22;20007;-66
2023/04/30 05:55:35;;;;;;;1999.90;999.90;;;16.70;99.90;;;;;;6269363;22;20436;-67
2023/04/30 05:58:00;;;;;;;1999.90;999.90;;;16.80;99.90;;;;;;6268900;22;20007;-66
2023/04/30 06:00:26;;;;;;;1999.90;999.90;;;16.80;99.90;;;;;;6268576;22;20074;-66
2023/04/30 06:02:52;;;;;;;1999.90;999.90;;;16.80;99.90;;;;;;6269828;22;20023;-67
2023/04/30 06:05:18;;;;;;;1999.90;999.90;;;16.80;99.90;;;;;;6268769;22;20022;-66
2023/04/30 06:07:43;;;;;;;1999.90;999.90;;;16.80;99.90;;;;;;6269271;22;20062;-66
2023/04/30 06:10:10;;;;;;;1999.90;999.90;;;16.80;99.90;;;;;;6268314;22;20058;-67
2023/04/30 06:12:36;;;;;;;1999.90;999.90;;;16.80;99.90;;;;;;6269788;22;20078;-66
2023/04/30 06:15:02;;;;;;;1999.90;999.90;;;16.80;99.90;;;;;;6268684;22;20039;-67
2023/04/30 06:17:27;;;;;;;1999.90;999.90;;;16.80;99.90;;;;;;6269551;22;20016;-66
2023/04/30 06:19:53;;;;;;;1999.90;999.90;;;16.80;99.90;;;;;;6269266;22;20018;-67
2023/04/30 06:22:19;;;;;;;1999.90;999.90;;;16.90;99.90;;;;;;6268043;22;20011;-66
2023/04/30 06:24:44;;;;;;;1999.90;999.90;;;16.80;99.90;;;;;;6269649;22;20015;-67
2023/04/30 06:27:10;;;;;;;1999.90;999.90;;;16.90;99.90;;;;;;6268908;22;20007;-67
2023/04/30 06:29:36;;;;;;;1999.90;999.90;;;16.90;99.90;;;;;;6269849;22;20379;-66
2023/04/30 06:32:01;;;;;;;1999.90;999.90;;;16.90;99.90;;;;;;6241535;22;20026;-67
2023/04/30 06:34:27;;;;;;;1999.90;999.90;;;16.90;99.90;;;;;;6268809;22;20018;-67
2023/04/30 06:36:52;;;;;;;1999.90;999.90;;;16.90;99.90;;;;;;6268465;22;20007;-66
2023/04/30 06:39:18;;;;;;;1999.90;999.90;;;16.90;99.90;;;;;;6241326;22;20118;-66
2023/04/30 06:41:46;;;;;;;1999.90;999.90;;;17.00;99.90;;;;;;6269086;22;20015;-67
2023/04/30 06:44:11;;;;;;;1999.90;999.90;;;17.00;99.90;;;;;;6267891;22;20018;-66
2023/04/30 06:46:37;;;;;;;1999.90;999.90;;;17.00;99.90;;;;;;6242064;22;20012;-67
2023/04/30 06:49:03;;;;;;;1999.90;999.90;;;17.10;99.90;;;;;;6267973;22;20015;-67
2023/04/30 06:51:28;;;;;;;1999.90;999.90;;;17.10;99.90;;;;;;6269181;22;20086;-67
2023/04/30 06:53:55;;;;;;;1999.90;999.90;;;17.10;99.90;;;;;;6268923;22;20329;-67
2023/04/30 06:56:20;;;;;;;1999.90;999.90;;;17.10;99.90;;;;;;6268434;22;20311;-66
2023/04/30 06:58:46;;;;;;;1999.90;999.90;;;17.10;99.90;;;;;;6269765;22;20047;-66
2023/04/30 07:01:12;;;;;;;1999.90;999.90;;;17.10;99.90;;;;;;6268433;22;20015;-67
2023/04/30 07:03:38;;;;;;;1999.90;999.90;;;17.20;99.90;;;;;;6269649;22;20082;-67
2023/04/30 07:06:04;;;;;;;1999.90;999.90;;;17.20;99.90;;;;;;6267660;22;20065;-67
2023/04/30 07:08:29;;;;;;;1999.90;999.90;;;17.20;99.90;;;;;;6241780;22;20448;-67
2023/04/30 07:10:55;;;;;;;1999.90;999.90;;;17.30;99.90;;;;;;6268780;22;20026;-67
2023/04/30 07:13:20;;;;;;;1999.90;999.90;;;17.30;99.90;;;;;;6270323;22;20494;-67
2023/04/30 07:15:46;;;;;;;1999.90;999.90;;;17.30;99.90;;;;;;6271557;22;20357;-67
2023/04/30 07:18:12;;;;;;;1999.90;999.90;;;17.30;99.90;;;;;;6270120;22;20544;-67
2023/04/30 07:20:38;;;;;;;1999.90;999.90;;;17.40;99.90;;;;;;6270604;22;20379;-67
2023/04/30 07:23:03;;;;;;;1999.90;999.90;;;17.40;99.90;;;;;;6270283;22;20012;-66
2023/04/30 07:25:29;;;;;;;1999.90;999.90;;;17.40;99.90;;;;;;6271312;22;20008;-67
2023/04/30 07:27:56;;;;;;;1999.90;999.90;;;17.40;99.90;;;;;;6270428;22;20095;-67
2023/04/30 07:30:21;;;;;;;1999.90;999.90;;;17.50;99.90;;;;;;6269222;22;20043;-67
2023/04/30 07:32:47;;;;;;;1999.90;999.90;;;17.50;99.90;;;;;;6243921;22;20023;-67
2023/04/30 07:35:13;;;;;;;1999.90;999.90;;;17.50;99.90;;;;;;6269647;22;20455;-67
2023/04/30 07:37:40;;;;;;;1999.90;999.90;;;17.50;99.90;;;;;;6271453;22;20008;-67
2023/04/30 07:40:08;;;;;;;1999.90;999.90;;;17.50;99.90;;;;;;6270223;22;20344;-67
2023/04/30 07:42:33;;;;;;;1999.90;999.90;;;17.50;99.90;;;;;;6271156;22;20012;-67
2023/04/30 07:44:59;;;;;;;1999.90;999.90;;;17.50;99.90;;;;;;6270331;22;20333;-67
2023/04/30 07:47:25;;;;;;;1999.90;999.90;;;17.50;99.90;;;;;;6244072;22;20411;-67
2023/04/30 07:49:51;;;;;;;1999.90;999.90;;;17.50;99.90;;;;;;6270315;22;20310;-67
2023/04/30 07:52:17;;;;;;;1999.90;999.90;;;17.60;99.90;;;;;;6269301;22;20011;-67
2023/04/30 07:54:43;;;;;;;1999.90;999.90;;;17.60;99.90;;;;;;6271077;22;20492;-67
2023/04/30 07:57:08;;;;;;;1999.90;999.90;;;17.60;99.90;;;;;;6269855;22;20026;-67
2023/04/30 07:59:34;;;;;;;1999.90;999.90;;;17.60;99.90;;;;;;6270972;22;20441;-67
2023/04/30 08:02:00;;;;;;;1999.90;999.90;;;17.60;99.90;;;;;;6269614;22;20012;-67
2023/04/30 08:04:26;;;;;;;1999.90;999.90;;;17.70;99.90;;;;;;6269921;22;20137;-67
2023/04/30 08:06:51;;;;;;;1999.90;999.90;;;17.60;99.90;;;;;;6270873;22;20039;-67
2023/04/30 08:09:17;;;;;;;1999.90;999.90;;;17.70;99.90;;;;;;6270100;22;20606;-67
2023/04/30 08:11:42;;;;;;;1999.90;999.90;;;17.70;99.90;;;;;;6270716;22;20487;-67
2023/04/30 08:14:08;;;;;;;1999.90;999.90;;;17.60;99.90;;;;;;6269040;22;20034;-67
2023/04/30 08:16:34;;;;;;;1999.90;999.90;;;17.70;99.90;;;;;;6243464;22;20374;-67
2023/04/30 08:18:59;;;;;;;1999.90;999.90;;;17.70;99.90;;;;;;6241545;22;20011;-66
2023/04/30 08:21:26;;;;;;;1999.90;999.90;;;17.70;99.90;;;;;;6270173;22;20023;-67
2023/04/30 08:23:53;;;;;;;1999.90;999.90;;;17.70;99.90;;;;;;6270085;22;20016;-67
2023/04/30 08:26:19;;;;;;;1999.90;999.90;;;17.80;99.90;;;;;;6270089;22;20008;-67
2023/04/30 08:28:44;;;;;;;1999.90;999.90;;;17.80;99.90;;;;;;6243734;22;20523;-67
2023/04/30 08:31:11;;;;;;;1999.90;999.90;;;17.80;99.90;;;;;;6269429;22;20016;-67
2023/04/30 08:33:36;;;;;;;1999.90;999.90;;;17.80;99.90;;;;;;6269914;22;20008;-67
2023/04/30 08:36:02;;;;;;;1999.90;999.90;;;17.80;99.90;;;;;;6268927;22;20011;-67
2023/04/30 08:38:27;;;;;;;1999.90;999.90;;;17.80;99.90;;;;;;6270517;22;20364;-67
2023/04/30 08:41:13;;;;;;;1999.90;999.90;;;17.90;99.90;;;;;;6270451;22;20090;-67
2023/04/30 08:43:40;;;;;;;1999.90;999.90;;;17.90;99.90;;;;;;6270561;22;20095;-67
2023/04/30 08:46:06;;;;;;;1999.90;999.90;;;17.80;99.90;;;;;;6269352;22;20039;-67
2023/04/30 08:48:32;;;;;;;1999.90;999.90;;;17.90;99.90;;;;;;6269748;22;20061;-67
2023/04/30 08:51:02;;;;;;;1999.90;999.90;;;17.90;99.90;;;;;;6269313;22;20011;-67
2023/04/30 08:53:30;;;;;;;1999.90;999.90;;;17.90;99.90;;;;;;6270333;22;20039;-67
2023/04/30 08:55:56;;;;;;;1999.90;999.90;;;17.90;99.90;;;;;;6242402;22;20047;-67
2023/04/30 08:58:22;;;;;;;1999.90;999.90;;;17.90;99.90;;;;;;6269962;22;20105;-67
2023/04/30 09:00:47;;;;;;;1999.90;999.90;;;17.90;99.90;;;;;;6270007;22;20099;-67
2023/04/30 09:03:13;;;;;;;1999.90;999.90;;;17.90;99.90;;;;;;6267701;22;20022;-67
2023/04/30 09:05:39;;;;;;;1999.90;999.90;;;17.90;99.90;;;;;;6270059;22;20008;-67
2023/04/30 09:08:07;;;;;;;1999.90;999.90;;;18.00;99.90;;;;;;6269005;22;20015;-67
2023/04/30 09:10:34;;;;;;;1999.90;999.90;;;18.00;99.90;;;;;;6270018;22;20023;-67
2023/04/30 09:13:01;;;;;;;1999.90;999.90;;;18.00;99.90;;;;;;6241372;22;20012;-67
2023/04/30 09:15:27;;;;;;;1999.90;999.90;;;18.00;99.90;;;;;;6269488;22;20008;-67
2023/04/30 09:18:16;;;;;;;1999.90;999.90;;;18.10;99.90;;;;;;6269198;22;20310;-67
2023/04/30 09:20:57;;;;;;;1999.90;999.90;;;18.10;99.90;;;;;;6269936;22;20020;-67
2023/04/30 09:23:24;;;;;;;1999.90;999.90;;;18.10;99.90;;;;;;6269449;22;20011;-67
2023/04/30 09:25:50;;;;;;;1999.90;999.90;;;18.10;99.90;;;;;;6270047;22;20015;-67
2023/04/30 09:28:15;;;;;;;1999.90;999.90;;;18.10;99.90;;;;;;6268904;22;20046;-67
2023/04/30 09:30:42;;;;;;;1999.90;999.90;;;18.10;99.90;;;;;;6269271;22;20066;-67
2023/04/30 09:33:08;;;;;;;1999.90;999.90;;;18.20;99.90;;;;;;6267659;22;20015;-67
2023/04/30 09:35:35;;;;;;;1999.90;999.90;;;18.10;99.90;;;;;;6269750;22;20004;-67
2023/04/30 09:38:02;;;;;;;1999.90;999.90;;;18.20;99.90;;;;;;6268555;22;20389;-67
2023/04/30 09:40:39;;;;;;;1999.90;999.90;;;18.20;99.90;;;;;;6269649;22;20018;-67
2023/04/30 09:43:05;;;;;;;1999.90;999.90;;;18.20;99.90;;;;;;6268502;22;20086;-67
2023/04/30 09:45:50;;;;;;;1999.90;999.90;;;18.20;99.90;;;;;;6269218;22;20012;-67
2023/04/30 09:48:22;;;;;;;1999.90;999.90;;;18.30;99.90;;;;;;6268872;22;20332;-67
2023/04/30 09:50:49;;;;;;;1999.90;999.90;;;18.20;99.90;;;;;;6269642;22;20146;-67
2023/04/30 09:53:18;;;;;;;1999.90;999.90;;;18.30;99.90;;;;;;6268646;22;20073;-67
2023/04/30 09:55:46;;;;;;;1999.90;999.90;;;18.30;99.90;;;;;;6270073;22;20073;-67
2023/04/30 09:58:12;;;;;;;1999.90;999.90;;;18.30;99.90;;;;;;6268980;22;20408;-67
2023/04/30 10:00:38;;;;;;;1999.90;999.90;;;18.30;99.90;;;;;;6269560;22;20030;-67
2023/04/30 10:03:11;;;;;;;1999.90;999.90;;;18.40;99.90;;;;;;6267723;22;20086;-67
2023/04/30 10:05:41;;;;;;;1999.90;999.90;;;18.40;99.90;;;;;;6242931;22;20019;-67
2023/04/30 10:08:12;;;;;;;1999.90;999.90;;;18.40;99.90;;;;;;6268565;22;20016;-67
2023/04/30 10:10:41;;;;;;;1999.90;999.90;;;18.50;99.90;;;;;;6268966;22;20490;-67
2023/04/30 10:13:13;;;;;;;1999.90;999.90;;;18.50;99.90;;;;;;6241439;22;20380;-67
2023/04/30 10:15:42;;;;;;;1999.90;999.90;;;18.50;99.90;;;;;;6269322;22;20015;-67
2023/04/30 10:18:30;;;;;;;1999.90;999.90;;;18.50;99.90;;;;;;6267918;22;20004;-67
2023/04/30 10:20:58;;;;;;;1999.90;999.90;;;18.50;99.90;;;;;;6268631;22;20051;-67
2023/04/30 10:23:23;;;;;;;1999.90;999.90;;;18.50;99.90;;;;;;6269645;22;20103;-67
2023/04/30 10:25:50;;;;;;;1999.90;999.90;;;18.50;99.90;;;;;;6242795;22;20051;-67
2023/04/30 10:28:16;;;;;;;1999.90;999.90;;;18.60;99.90;;;;;;6268331;22;20054;-67
2023/04/30 10:30:42;;;;;;;1999.90;999.90;;;18.60;99.90;;;;;;6269716;22;20015;-67
2023/04/30 10:33:35;;;;;;;1999.90;999.90;;;18.60;99.90;;;;;;6267885;22;20018;-66
2023/04/30 10:36:05;;;;;;;1999.90;999.90;;;18.60;99.90;;;;;;6267969;22;20019;-67
2023/04/30 10:38:32;;;;;;;1999.90;999.90;;;18.60;99.90;;;;;;6242438;22;20019;-67
2023/04/30 10:41:00;;;;;;;1999.90;999.90;;;18.60;99.90;;;;;;6268680;22;20047;-67
2023/04/30 10:43:28;;;;;;;1999.90;999.90;;;18.70;99.90;;;;;;6241426;22;20020;-67
2023/04/30 10:45:57;;;;;;;1999.90;999.90;;;18.70;99.90;;;;;;6242048;22;20016;-67
2023/04/30 10:48:24;;;;;;;1999.90;999.90;;;18.70;99.90;;;;;;6271623;22;20387;-67
2023/04/30 10:50:56;;;;;;;1999.90;999.90;;;18.70;99.90;;;;;;6271595;22;20008;-67
2023/04/30 10:53:24;;;;;;;1999.90;999.90;;;18.80;99.90;;;;;;6271666;22;20035;-67
2023/04/30 10:56:06;;;;;;;1999.90;999.90;;;18.80;99.90;;;;;;6271141;22;20016;-67
2023/04/30 10:58:33;;;;;;;1999.90;999.90;;;18.80;99.90;;;;;;6271165;22;20015;-67
2023/04/30 11:01:01;;;;;;;1999.90;999.90;;;18.80;99.90;;;;;;6243435;22;20023;-67
2023/04/30 11:03:31;;;;;;;1999.90;999.90;;;18.80;99.90;;;;;;6271459;22;20018;-67
2023/04/30 11:05:58;;;;;;;1999.90;999.90;;;18.80;99.90;;;;;;6270001;22;20340;-67
2023/04/30 11:08:38;;;;;;;1999.90;999.90;;;18.80;99.90;;;;;;6244139;22;20102;-67
2023/04/30 11:11:04;;;;;;;1999.90;999.90;;;18.90;99.90;;;;;;6270311;22;20012;-67
2023/04/30 11:13:47;;;;;;;1999.90;999.90;;;18.90;99.90;;;;;;6270764;22;20008;-67
2023/04/30 11:16:14;;;;;;;1999.90;999.90;;;18.90;99.90;;;;;;6270684;22;20447;-67
2023/04/30 11:18:44;;;;;;;1999.90;999.90;;;18.90;99.90;;;;;;6270452;22;20079;-67
2023/04/30 11:21:10;;;;;;;1999.90;999.90;;;18.90;99.90;;;;;;6270215;22;20062;-67
2023/04/30 11:23:41;;;;;;;1999.90;999.90;;;18.90;99.90;;;;;;6270920;22;20342;-67
2023/04/30 11:26:07;;;;;;;1999.90;999.90;;;18.90;99.90;;;;;;6269040;22;20015;-67
2023/04/30 11:28:35;;;;;;;1999.90;999.90;;;18.90;99.90;;;;;;6271453;22;20029;-67
2023/04/30 11:31:01;;;;;;;1999.90;999.90;;;19.00;99.90;;;;;;6270282;22;20086;-67
2023/04/30 11:33:29;;;;;;;1999.90;999.90;;;19.00;99.90;;;;;;6243836;22;20008;-67
2023/04/30 11:35:56;;;;;;;1999.90;999.90;;;19.00;99.90;;;;;;6242546;22;20015;-68
2023/04/30 11:38:35;;;;;;;1999.90;999.90;;;19.00;99.90;;;;;;6270986;22;20183;-67
2023/04/30 11:41:02;;;;;;;1999.90;999.90;;;19.00;99.90;;;;;;6269098;22;20043;-67
2023/04/30 11:43:32;;;;;;;1999.90;999.90;;;19.00;99.90;;;;;;6270386;22;20011;-67
2023/04/30 11:46:05;;;;;;;1999.90;999.90;;;19.10;99.90;;;;;;6270173;22;20016;-67
2023/04/30 11:48:35;;;;;;;1999.90;999.90;;;19.10;99.90;;;;;;6243476;22;20008;-67
2023/04/30 11:51:18;;;;;;;1999.90;999.90;;;19.10;99.90;;;;;;6242945;22;20022;-67
2023/04/30 11:53:49;;;;;;;1999.90;999.90;;;19.10;99.90;;;;;;6270865;22;20073;-67
2023/04/30 11:56:22;;;;;;;1999.90;999.90;;;19.10;99.90;;;;;;6242235;22;20051;-67
2023/04/30 11:58:50;;;;;;;1999.90;999.90;;;19.10;99.90;;;;;;6270755;22;20353;-67
2023/04/30 12:01:16;;;;;;;1999.90;999.90;;;19.10;99.90;;;;;;6269278;22;20032;-67